Corozal, Belize
Current Conditions -  °F | °C
As of 8:41 AM on Saturday 25 Oct 2014 (Local Time) from MMCM Reporting Station
Broken Clouds Broken Clouds  
Wind Chill: 77°   Ceiling: 20000
Heat Index: 78°   Visibility: 7mi
Dew Point: 72°   Wind: 7mph
Humidity: 83%   Direction: 340°NNW
Pressure: 30"   Gusts: NA
Location:  18.4°N, 88.39°W
Report Text: MMCM 251441Z 34006KT 7SM SCT015 BKN200 25/22 A3000 RMK SLP160 5//// 949 8/102 RTS
Loading
Personal Weather Stations






























Interactive Weather Map New forecast layout! Learn more

10-Day Weather Forecast

Advertisements
Track Severe Weather on mobile